Time,TemperatureF,DewpointF,PressureIn,WindDirection,WindDirectionDegrees,WindSpeedMPH,WindSpeedGustMPH,Humidity,HourlyPrecipIn,Conditions,Clouds,dailyrainin,SoftwareType,DateUTC
2013-02-16 00:04:00,6.7,0.6,30.51,SW,225,0.7,0.7,76,0.00,,,0.00,WUHU216HW,2013-02-16 06:04:00,
2013-02-16 00:29:00,6.5,0.5,30.51,WSW,248,1.6,1.6,76,0.00,,,0.00,WUHU216HW,2013-02-16 06:29:00,
2013-02-16 00:34:00,6.5,0.5,30.51,WSW,248,1.6,1.6,76,0.00,,,0.00,WUHU216HW,2013-02-16 06:34:00,
2013-02-16 00:59:00,6.5,0.7,30.51,West,270,0.9,0.9,77,0.00,,,0.00,WUHU216HW,2013-02-16 06:59:00,
2013-02-16 01:04:00,6.5,0.7,30.51,West,270,0.9,0.9,77,0.00,,,0.00,WUHU216HW,2013-02-16 07:04:00,
2013-02-16 01:29:00,6.1,0.4,30.51,WSW,248,1.3,1.3,77,0.00,,,0.00,WUHU216HW,2013-02-16 07:29:00,
2013-02-16 01:34:00,6.1,0.4,30.51,WSW,248,1.3,1.3,77,0.00,,,0.00,WUHU216HW,2013-02-16 07:34:00,
2013-02-16 01:59:00,7.2,1.8,30.50,WSW,248,0.2,0.2,78,0.00,,,0.00,WUHU216HW,2013-02-16 07:59:00,
2013-02-16 02:04:00,7.2,1.8,30.50,WSW,248,0.2,0.2,78,0.00,,,0.00,WUHU216HW,2013-02-16 08:04:00,
2013-02-16 02:29:00,7.9,2.5,30.50,North,0,0.9,0.9,78,0.00,,,0.00,WUHU216HW,2013-02-16 08:29:00,
2013-02-16 02:34:00,7.9,2.5,30.50,North,0,0.9,0.9,78,0.00,,,0.00,WUHU216HW,2013-02-16 08:34:00,
2013-02-16 02:59:00,8.6,3.5,30.49,ESE,113,0.0,0.0,79,0.00,,,0.00,WUHU216HW,2013-02-16 08:59:00,
2013-02-16 03:04:00,8.6,3.5,30.49,ESE,113,0.0,0.0,79,0.00,,,0.00,WUHU216HW,2013-02-16 09:04:00,
2013-02-16 03:29:00,8.8,3.3,30.47,West,270,0.9,0.9,78,0.00,,,0.00,WUHU216HW,2013-02-16 09:29:00,
2013-02-16 03:34:00,8.8,3.3,30.47,West,270,0.9,0.9,78,0.00,,,0.00,WUHU216HW,2013-02-16 09:34:00,
2013-02-16 03:59:00,8.6,3.5,30.46,WSW,248,1.3,1.3,79,0.00,,,0.00,WUHU216HW,2013-02-16 09:59:00,
2013-02-16 04:04:00,8.6,3.5,30.46,WSW,248,1.3,1.3,79,0.00,,,0.00,WUHU216HW,2013-02-16 10:04:00,
2013-02-16 04:29:00,8.5,3.3,30.46,West,270,0.4,0.4,79,0.00,,,0.00,WUHU216HW,2013-02-16 10:29:00,
2013-02-16 04:34:00,8.5,3.3,30.46,West,270,0.4,0.4,79,0.00,,,0.00,WUHU216HW,2013-02-16 10:34:00,
2013-02-16 04:59:00,8.5,3.3,30.46,West,270,1.8,1.8,79,0.00,,,0.00,WUHU216HW,2013-02-16 10:59:00,
2013-02-16 05:04:00,8.5,3.3,30.46,West,270,1.8,1.8,79,0.00,,,0.00,WUHU216HW,2013-02-16 11:04:00,
2013-02-16 05:29:00,8.3,3.4,30.45,WSW,248,2.5,2.5,80,0.00,,,0.00,WUHU216HW,2013-02-16 11:29:00,
2013-02-16 05:34:00,8.3,3.4,30.45,WSW,248,2.5,2.5,80,0.00,,,0.00,WUHU216HW,2013-02-16 11:34:00,
2013-02-16 05:59:00,9.0,4.2,30.45,WSW,248,0.4,0.4,80,0.00,,,0.00,WUHU216HW,2013-02-16 11:59:00,
2013-02-16 06:04:00,9.0,4.2,30.45,WSW,248,0.4,0.4,80,0.00,,,0.00,WUHU216HW,2013-02-16 12:04:00,
2013-02-16 06:29:00,9.0,4.2,30.45,WSW,248,0.0,0.0,80,0.00,,,0.00,WUHU216HW,2013-02-16 12:29:00,
2013-02-16 06:34:00,9.0,4.2,30.45,WSW,248,0.0,0.0,80,0.00,,,0.00,WUHU216HW,2013-02-16 12:34:00,
2013-02-16 06:59:00,9.2,4.2,30.45,SW,225,0.0,0.0,80,0.00,,,0.00,WUHU216HW,2013-02-16 12:59:00,
2013-02-16 07:04:00,9.2,4.2,30.45,SW,225,0.0,0.0,80,0.00,,,0.00,WUHU216HW,2013-02-16 13:04:00,
2013-02-16 07:29:00,9.4,4.4,30.45,WNW,293,0.0,0.0,80,0.00,,,0.00,WUHU216HW,2013-02-16 13:29:00,
2013-02-16 07:34:00,9.4,4.4,30.45,WNW,293,0.0,0.0,80,0.00,,,0.00,WUHU216HW,2013-02-16 13:34:00,
2013-02-16 07:59:00,9.7,4.8,30.45,WSW,248,0.0,0.0,80,0.00,,,0.00,WUHU216HW,2013-02-16 13:59:00,
2013-02-16 08:04:00,9.7,4.8,30.45,WSW,248,0.0,0.0,80,0.00,,,0.00,WUHU216HW,2013-02-16 14:04:00,
2013-02-16 08:29:00,10.4,5.4,30.46,SW,225,0.0,0.0,80,0.00,,,0.00,WUHU216HW,2013-02-16 14:29:00,
2013-02-16 08:34:00,10.4,5.4,30.46,SW,225,0.0,0.0,80,0.00,,,0.00,WUHU216HW,2013-02-16 14:34:00,
2013-02-16 08:59:00,11.2,6.4,30.45,North,0,0.0,0.0,81,0.00,,,0.00,WUHU216HW,2013-02-16 14:59:00,
2013-02-16 09:04:00,11.2,6.4,30.45,North,0,0.0,0.0,81,0.00,,,0.00,WUHU216HW,2013-02-16 15:04:00,
2013-02-16 09:29:00,12.1,7.0,30.45,South,180,0.2,0.2,80,0.00,,,0.00,WUHU216HW,2013-02-16 15:29:00,
2013-02-16 09:34:00,12.1,7.0,30.45,South,180,0.2,0.2,80,0.00,,,0.00,WUHU216HW,2013-02-16 15:34:00,
2013-02-16 09:59:00,12.6,7.3,30.44,NW,315,0.0,0.0,79,0.00,,,0.00,WUHU216HW,2013-02-16 15:59:00,
2013-02-16 10:04:00,12.6,7.3,30.44,NW,315,0.0,0.0,79,0.00,,,0.00,WUHU216HW,2013-02-16 16:04:00,
2013-02-16 10:29:00,14.2,8.3,30.44,ESE,113,0.4,0.4,77,0.00,,,0.00,WUHU216HW,2013-02-16 16:29:00,
2013-02-16 10:34:00,14.2,8.3,30.44,ESE,113,0.4,0.4,77,0.00,,,0.00,WUHU216HW,2013-02-16 16:34:00,
2013-02-16 10:59:00,14.2,8.0,30.44,SSW,203,1.1,1.1,76,0.00,,,0.00,WUHU216HW,2013-02-16 16:59:00,
2013-02-16 11:04:00,14.2,8.0,30.44,SSW,203,1.1,1.1,76,0.00,,,0.00,WUHU216HW,2013-02-16 17:04:00,
2013-02-16 11:29:00,14.6,8.4,30.43,NNE,23,0.4,0.4,76,0.00,,,0.00,WUHU216HW,2013-02-16 17:29:00,
2013-02-16 11:34:00,14.6,8.4,30.43,NNE,23,0.4,0.4,76,0.00,,,0.00,WUHU216HW,2013-02-16 17:34:00,
2013-02-16 11:59:00,14.8,8.3,30.43,North,0,0.9,0.9,75,0.00,,,0.00,WUHU216HW,2013-02-16 17:59:00,
2013-02-16 12:04:00,14.8,8.3,30.43,North,0,0.9,0.9,75,0.00,,,0.00,WUHU216HW,2013-02-16 18:04:00,
2013-02-16 12:29:00,14.9,8.4,30.42,North,0,1.1,1.1,75,0.00,,,0.00,WUHU216HW,2013-02-16 18:29:00,
2013-02-16 12:34:00,14.9,8.4,30.42,North,0,1.1,1.1,75,0.00,,,0.00,WUHU216HW,2013-02-16 18:34:00,
2013-02-16 12:59:00,15.5,8.7,30.41,NNW,338,0.4,0.4,74,0.00,,,0.00,WUHU216HW,2013-02-16 18:59:00,
2013-02-16 13:04:00,15.5,8.7,30.41,NNW,338,0.4,0.4,74,0.00,,,0.00,WUHU216HW,2013-02-16 19:04:00,
2013-02-16 13:29:00,16.4,9.5,30.40,South,180,1.8,1.8,74,0.00,,,0.00,WUHU216HW,2013-02-16 19:29:00,
2013-02-16 13:34:00,16.4,9.5,30.40,South,180,1.8,1.8,74,0.00,,,0.00,WUHU216HW,2013-02-16 19:34:00,
2013-02-16 13:59:00,16.7,9.6,30.39,East,90,2.5,2.5,73,0.00,,,0.00,WUHU216HW,2013-02-16 19:59:00,
2013-02-16 14:04:00,16.7,9.6,30.39,East,90,2.5,2.5,73,0.00,,,0.00,WUHU216HW,2013-02-16 20:04:00,
2013-02-16 14:29:00,17.5,10.3,30.38,North,0,1.3,1.3,73,0.00,,,0.00,WUHU216HW,2013-02-16 20:29:00,
2013-02-16 14:34:00,17.5,10.3,30.38,North,0,1.3,1.3,73,0.00,,,0.00,WUHU216HW,2013-02-16 20:34:00,
2013-02-16 14:59:00,17.8,10.3,30.38,SE,135,1.8,1.8,72,0.00,,,0.00,WUHU216HW,2013-02-16 20:59:00,
2013-02-16 15:04:00,17.8,10.3,30.38,SE,135,1.8,1.8,72,0.00,,,0.00,WUHU216HW,2013-02-16 21:04:00,
2013-02-16 15:29:00,18.4,10.4,30.38,SSE,158,1.1,1.1,71,0.00,,,0.00,WUHU216HW,2013-02-16 21:29:00,
2013-02-16 15:34:00,18.4,10.4,30.38,SSE,158,1.1,1.1,71,0.00,,,0.00,WUHU216HW,2013-02-16 21:34:00,
2013-02-16 15:39:00,18.4,10.4,30.38,SSE,158,1.1,1.1,71,0.00,,,0.00,WUHU216HW,2013-02-16 21:39:00,
2013-02-16 15:59:00,18.4,10.4,30.38,East,90,0.7,0.7,71,0.00,,,0.00,WUHU216HW,2013-02-16 21:59:00,
2013-02-16 16:04:00,18.4,10.4,30.38,East,90,0.7,0.7,71,0.00,,,0.00,WUHU216HW,2013-02-16 22:04:00,
2013-02-16 16:29:00,18.5,10.6,30.38,ESE,113,1.1,1.1,71,0.00,,,0.00,WUHU216HW,2013-02-16 22:29:00,
2013-02-16 16:34:00,18.5,10.6,30.38,ESE,113,1.1,1.1,71,0.00,,,0.00,WUHU216HW,2013-02-16 22:34:00,
2013-02-16 16:59:00,18.7,10.8,30.38,North,0,0.4,0.4,71,0.00,,,0.00,WUHU216HW,2013-02-16 22:59:00,
2013-02-16 17:04:00,18.7,10.8,30.38,North,0,0.4,0.4,71,0.00,,,0.00,WUHU216HW,2013-02-16 23:04:00,
2013-02-16 17:29:00,18.4,10.4,30.38,East,90,0.4,0.4,71,0.00,,,0.00,WUHU216HW,2013-02-16 23:29:00,
2013-02-16 17:34:00,18.4,10.4,30.38,East,90,0.4,0.4,71,0.00,,,0.00,WUHU216HW,2013-02-16 23:34:00,
2013-02-16 17:59:00,17.5,9.6,30.38,East,90,0.2,0.2,71,0.00,,,0.00,WUHU216HW,2013-02-16 23:59:00,
2013-02-16 18:04:00,17.5,9.6,30.38,East,90,0.2,0.2,71,0.00,,,0.00,WUHU216HW,2013-02-17 00:04:00,
2013-02-16 18:29:00,16.6,8.7,30.38,East,90,0.0,0.0,71,0.00,,,0.00,WUHU216HW,2013-02-17 00:29:00,
2013-02-16 18:34:00,16.6,8.7,30.38,East,90,0.0,0.0,71,0.00,,,0.00,WUHU216HW,2013-02-17 00:34:00,
2013-02-16 18:59:00,15.1,7.4,30.38,East,90,0.0,0.0,71,0.00,,,0.00,WUHU216HW,2013-02-17 00:59:00,
2013-02-16 19:04:00,15.1,7.4,30.38,East,90,0.0,0.0,71,0.00,,,0.00,WUHU216HW,2013-02-17 01:04:00,
2013-02-16 19:29:00,13.9,6.9,30.38,ENE,68,0.0,0.0,73,0.00,,,0.00,WUHU216HW,2013-02-17 01:29:00,
2013-02-16 19:34:00,13.9,6.9,30.38,ENE,68,0.0,0.0,73,0.00,,,0.00,WUHU216HW,2013-02-17 01:34:00,
2013-02-16 19:59:00,12.8,6.0,30.37,ENE,68,0.0,0.0,74,0.00,,,0.00,WUHU216HW,2013-02-17 01:59:00,
2013-02-16 20:04:00,12.8,6.0,30.37,ENE,68,0.0,0.0,74,0.00,,,0.00,WUHU216HW,2013-02-17 02:04:00,
2013-02-16 20:29:00,12.8,6.3,30.36,East,90,0.0,0.0,75,0.00,,,0.00,WUHU216HW,2013-02-17 02:29:00,
2013-02-16 20:34:00,12.8,6.3,30.36,East,90,0.0,0.0,75,0.00,,,0.00,WUHU216HW,2013-02-17 02:34:00,
2013-02-16 20:59:00,12.4,5.7,30.36,East,90,0.0,0.0,74,0.00,,,0.00,WUHU216HW,2013-02-17 02:59:00,
2013-02-16 21:04:00,12.4,5.7,30.36,East,90,0.0,0.0,74,0.00,,,0.00,WUHU216HW,2013-02-17 03:04:00,
2013-02-16 21:29:00,11.7,5.2,30.37,East,90,0.0,0.0,75,0.00,,,0.00,WUHU216HW,2013-02-17 03:29:00,
2013-02-16 21:34:00,11.7,5.2,30.37,East,90,0.0,0.0,75,0.00,,,0.00,WUHU216HW,2013-02-17 03:34:00,
2013-02-16 21:59:00,11.3,4.9,30.36,East,90,0.4,0.4,75,0.00,,,0.00,WUHU216HW,2013-02-17 03:59:00,
2013-02-16 22:04:00,11.3,4.9,30.36,East,90,0.4,0.4,75,0.00,,,0.00,WUHU216HW,2013-02-17 04:04:00,
2013-02-16 22:29:00,11.3,5.1,30.36,East,90,2.2,2.2,76,0.00,,,0.00,WUHU216HW,2013-02-17 04:29:00,
2013-02-16 22:34:00,11.3,5.1,30.36,East,90,2.2,2.2,76,0.00,,,0.00,WUHU216HW,2013-02-17 04:34:00,
2013-02-16 22:59:00,11.5,5.3,30.35,East,90,0.4,0.4,76,0.00,,,0.00,WUHU216HW,2013-02-17 04:59:00,
2013-02-16 23:00:00,11.5,5.3,30.35,East,90,0.4,0.4,76,0.00,,,0.00,WUHU216HW,2013-02-17 05:00:00,
2013-02-16 23:05:00,11.5,5.3,30.35,East,90,0.4,0.4,76,0.00,,,0.00,WUHU216HW,2013-02-17 05:05:00,
2013-02-16 23:29:00,11.7,5.8,30.34,East,90,0.7,0.7,77,0.00,,,0.00,WUHU216HW,2013-02-17 05:29:00,
2013-02-16 23:34:00,11.7,5.8,30.34,East,90,0.7,0.7,77,0.00,,,0.00,WUHU216HW,2013-02-17 05:34:00,
2013-02-16 23:59:00,11.7,5.8,30.33,ENE,68,0.0,0.0,77,0.00,,,0.00,WUHU216HW,2013-02-17 05:59:00,